createdAt,value
2023-05-19T00:00:39.928Z,78.36
2023-05-19T00:03:10.096Z,78.27
2023-05-19T00:05:40.918Z,78.29
2023-05-19T00:08:10.563Z,78.39
2023-05-19T00:10:40.723Z,78.36
2023-05-19T00:13:09.312Z,78.74
2023-05-19T00:15:38.200Z,78.93
2023-05-19T00:18:09.063Z,78.95
2023-05-19T00:20:38.948Z,78.96
2023-05-19T00:23:07.034Z,78.79
2023-05-19T00:25:35.147Z,78.81
2023-05-19T00:28:03.452Z,78.99
2023-05-19T00:30:31.939Z,79.07
2023-05-19T00:33:00.272Z,79.21
2023-05-19T00:35:28.486Z,79.15
2023-05-19T00:37:57.922Z,79.27
2023-05-19T00:40:26.902Z,79.42
2023-05-19T00:42:55.003Z,79.49
2023-05-19T00:45:23.278Z,79.85
2023-05-19T00:47:51.425Z,79.63
2023-05-19T00:50:19.556Z,79.60
2023-05-19T00:52:47.741Z,79.80
2023-05-19T00:55:17.395Z,79.57
2023-05-19T00:57:45.946Z,79.67
2023-05-19T01:00:15.430Z,79.92
2023-05-19T01:02:44.142Z,79.92
2023-05-19T01:05:12.292Z,79.84
2023-05-19T01:07:41.500Z,79.92
2023-05-19T01:10:10.455Z,79.53
2023-05-19T01:12:41.560Z,79.53
2023-05-19T01:15:11.006Z,79.92
2023-05-19T01:17:43.477Z,79.76
2023-05-19T01:20:17.250Z,79.53
2023-05-19T01:23:09.312Z,79.71
2023-05-19T01:26:04.299Z,79.84
2023-05-19T01:29:08.621Z,80.06
2023-05-19T01:31:40.061Z,80.21
2023-05-19T01:34:08.818Z,80.25
2023-05-19T01:36:37.431Z,80.40
2023-05-19T01:39:05.771Z,80.46
2023-05-19T01:41:35.316Z,80.42
2023-05-19T01:44:03.492Z,80.30
2023-05-19T01:46:31.619Z,79.94
2023-05-19T01:49:01.198Z,79.88
2023-05-19T01:51:29.314Z,79.67
2023-05-19T01:53:57.490Z,79.78
2023-05-19T01:56:31.600Z,79.90
2023-05-19T01:59:05.258Z,80.01
2023-05-19T02:01:39.241Z,80.32
2023-05-19T02:04:19.671Z,80.51
2023-05-19T02:06:53.132Z,80.72
2023-05-19T02:09:25.095Z,80.96
2023-05-19T02:11:56.507Z,80.87
2023-05-19T02:14:31.106Z,81.44
2023-05-19T02:16:59.992Z,80.97
2023-05-19T02:19:32.106Z,81.08
2023-05-19T02:22:00.276Z,81.11
2023-05-19T02:24:28.429Z,81.21
2023-05-19T02:26:56.552Z,80.89
2023-05-19T02:29:24.694Z,80.99
2023-05-19T02:31:52.809Z,81.07
2023-05-19T02:34:21.058Z,80.90
2023-05-19T02:36:51.613Z,80.62
2023-05-19T02:39:19.908Z,80.82
2023-05-19T02:41:47.987Z,80.65
2023-05-19T02:44:16.124Z,80.97
2023-05-19T02:46:44.411Z,81.17
2023-05-19T02:49:12.586Z,81.16
2023-05-19T02:51:40.686Z,81.09
2023-05-19T02:54:10.195Z,81.14
2023-05-19T02:56:38.315Z,81.11
2023-05-19T02:59:06.437Z,81.48
2023-05-19T03:01:34.625Z,81.57
2023-05-19T03:04:02.811Z,81.41
2023-05-19T03:06:32.855Z,81.35
2023-05-19T03:09:00.926Z,81.28
2023-05-19T03:11:30.989Z,81.35
2023-05-19T03:13:59.803Z,81.49
2023-05-19T03:16:28.176Z,81.54
2023-05-19T03:18:57.259Z,81.69
2023-05-19T03:21:25.511Z,81.69
2023-05-19T03:23:54.675Z,81.66
2023-05-19T03:26:24.571Z,81.56
2023-05-19T03:28:54.231Z,81.85
2023-05-19T03:31:22.407Z,81.83
2023-05-19T03:33:50.534Z,82.37
2023-05-19T03:36:18.676Z,83.10
2023-05-19T03:38:46.792Z,83.03
2023-05-19T03:41:14.979Z,83.11
2023-05-19T03:43:43.113Z,83.31
2023-05-19T03:46:12.627Z,83.15
2023-05-19T03:48:41.288Z,83.09
2023-05-19T03:51:09.475Z,82.96
2023-05-19T03:53:38.120Z,83.17
2023-05-19T03:56:07.594Z,82.88
2023-05-19T03:58:37.031Z,83.07
2023-05-19T04:01:05.206Z,83.17
2023-05-19T04:03:34.725Z,83.34
2023-05-19T04:06:02.936Z,83.44
2023-05-19T04:08:31.052Z,83.93
2023-05-19T04:10:59.206Z,84.30
2023-05-19T04:13:27.308Z,84.39
2023-05-19T04:15:55.496Z,83.94
2023-05-19T04:18:23.659Z,83.69
2023-05-19T04:20:53.184Z,83.45
2023-05-19T04:23:21.290Z,83.58
2023-05-19T04:25:50.304Z,83.64
2023-05-19T04:28:18.693Z,84.08
2023-05-19T04:30:47.230Z,84.36
2023-05-19T04:33:15.326Z,84.24
2023-05-19T04:35:43.866Z,84.05
2023-05-19T04:38:13.348Z,84.34
2023-05-19T04:40:42.578Z,84.07
2023-05-19T04:43:11.365Z,83.66
2023-05-19T04:45:42.509Z,83.41
2023-05-19T04:48:10.708Z,83.32
2023-05-19T04:50:42.161Z,82.96
2023-05-19T04:53:11.443Z,82.86
2023-05-19T04:55:40.947Z,82.67
2023-05-19T04:58:09.120Z,82.60
2023-05-19T05:00:38.208Z,82.67
2023-05-19T05:03:07.296Z,83.17
2023-05-19T05:05:36.030Z,83.67
2023-05-19T05:08:04.500Z,83.67
2023-05-19T05:10:32.981Z,83.29
2023-05-19T05:13:03.424Z,82.86
2023-05-19T05:15:32.102Z,82.71
2023-05-19T05:18:00.844Z,82.63
2023-05-19T05:20:29.652Z,82.82
2023-05-19T05:22:58.731Z,82.88
2023-05-19T05:25:27.582Z,82.37
2023-05-19T05:27:55.797Z,82.03
2023-05-19T05:30:25.309Z,81.64
2023-05-19T05:32:53.761Z,81.22
2023-05-19T05:35:23.579Z,81.47
2023-05-19T05:37:51.689Z,81.14
2023-05-19T05:40:20.548Z,81.15
2023-05-19T05:42:48.718Z,80.35
2023-05-19T05:45:17.001Z,80.24
2023-05-19T05:47:47.217Z,80.02
2023-05-19T05:50:16.297Z,79.96
2023-05-19T05:52:47.149Z,79.76
2023-05-19T05:55:17.383Z,78.93
2023-05-19T05:57:45.556Z,79.29
2023-05-19T06:00:16.413Z,78.46
2023-05-19T06:02:47.564Z,78.19
2023-05-19T06:05:16.014Z,77.76
2023-05-19T06:07:44.562Z,76.74
2023-05-19T06:10:12.988Z,76.38
2023-05-19T06:12:42.520Z,75.00
2023-05-19T06:15:11.614Z,74.53
2023-05-19T06:17:39.797Z,74.70
2023-05-19T06:20:11.112Z,74.49
2023-05-19T06:22:39.232Z,73.06
2023-05-19T06:25:08.958Z,72.16
2023-05-19T06:27:37.226Z,71.36
2023-05-19T06:30:06.421Z,69.68
2023-05-19T06:32:34.568Z,68.63
2023-05-19T06:35:02.728Z,67.96
2023-05-19T06:37:32.227Z,67.59
2023-05-19T06:40:00.313Z,66.99
2023-05-19T06:42:28.393Z,66.58
2023-05-19T06:44:56.941Z,66.34
2023-05-19T06:47:25.086Z,65.17
2023-05-19T06:49:55.406Z,64.23
2023-05-19T06:52:24.095Z,63.95
2023-05-19T06:54:53.605Z,64.33
2023-05-19T06:57:22.358Z,64.47
2023-05-19T06:59:50.553Z,63.04
2023-05-19T07:02:18.686Z,59.95
2023-05-19T07:04:47.414Z,58.87
2023-05-19T07:07:15.665Z,59.74
2023-05-19T07:09:43.841Z,59.15
2023-05-19T07:12:13.325Z,58.84
2023-05-19T07:14:41.458Z,59.65
2023-05-19T07:17:09.611Z,59.49
2023-05-19T07:19:37.735Z,59.87
2023-05-19T07:22:06.139Z,59.27
2023-05-19T07:24:34.260Z,58.63
2023-05-19T07:27:02.373Z,58.69
2023-05-19T07:29:31.872Z,57.02
2023-05-19T07:32:00.063Z,56.86
2023-05-19T07:34:28.245Z,56.29
2023-05-19T07:36:56.402Z,55.01
2023-05-19T07:39:27.798Z,55.27
2023-05-19T07:41:56.032Z,54.81
2023-05-19T07:44:24.157Z,55.02
2023-05-19T07:46:53.720Z,54.94
2023-05-19T07:49:21.828Z,54.03
2023-05-19T07:51:50.280Z,53.78
2023-05-19T07:54:18.438Z,53.60
2023-05-19T07:56:47.160Z,53.41
2023-05-19T07:59:15.818Z,52.94
2023-05-19T08:01:43.946Z,52.15
2023-05-19T08:04:14.164Z,52.87
2023-05-19T08:06:44.486Z,51.60
2023-05-19T08:09:12.993Z,51.17
2023-05-19T08:11:41.158Z,50.86
2023-05-19T08:14:09.231Z,51.31
2023-05-19T08:16:37.377Z,50.18
2023-05-19T08:19:07.288Z,50.09
2023-05-19T08:21:37.069Z,49.81
2023-05-19T08:24:05.376Z,49.35
2023-05-19T08:26:35.034Z,48.54
2023-05-19T08:29:04.478Z,48.34
2023-05-19T08:31:32.678Z,48.72
2023-05-19T08:34:00.859Z,47.72
2023-05-19T08:36:29.508Z,47.01
2023-05-19T08:38:59.046Z,47.93
2023-05-19T08:41:27.168Z,47.33
2023-05-19T08:43:55.492Z,48.33
2023-05-19T08:46:26.188Z,47.09
2023-05-19T08:48:59.158Z,46.61
2023-05-19T08:51:34.306Z,44.59
2023-05-19T08:54:10.460Z,43.80
2023-05-19T08:56:39.153Z,43.62
2023-05-19T08:59:08.809Z,42.32
2023-05-19T09:04:11.224Z,43.35
2023-05-19T09:06:41.005Z,43.96
2023-05-19T09:09:10.933Z,42.92
2023-05-19T09:11:39.082Z,43.73
2023-05-19T09:14:07.161Z,43.86
2023-05-19T09:16:35.797Z,43.82
2023-05-19T09:19:04.450Z,43.30
2023-05-19T09:21:33.583Z,42.61
2023-05-19T09:24:06.078Z,41.83
2023-05-19T09:26:39.915Z,42.11
2023-05-19T09:29:14.497Z,42.66
2023-05-19T09:31:49.877Z,41.45
2023-05-19T09:34:18.076Z,40.41
2023-05-19T09:36:49.495Z,41.79
2023-05-19T09:39:18.062Z,40.20
2023-05-19T09:41:48.128Z,39.82
2023-05-19T09:44:23.572Z,40.74
2023-05-19T09:46:52.780Z,40.50
2023-05-19T09:49:24.649Z,39.75
2023-05-19T09:51:55.037Z,39.49
2023-05-19T09:54:24.069Z,38.21
2023-05-19T09:57:00.930Z,38.28
2023-05-19T09:59:32.557Z,37.66
2023-05-19T10:02:02.249Z,36.56
2023-05-19T10:04:31.512Z,36.47
2023-05-19T10:07:00.539Z,36.59
2023-05-19T10:09:29.888Z,35.16
2023-05-19T10:12:00.175Z,35.85
2023-05-19T10:14:29.540Z,36.54
2023-05-19T10:16:59.257Z,36.55
2023-05-19T10:19:30.088Z,37.90
2023-05-19T10:21:58.420Z,38.25
2023-05-19T10:24:26.691Z,37.65
2023-05-19T10:26:57.772Z,35.73
2023-05-19T10:29:29.843Z,35.73
2023-05-19T10:31:59.834Z,35.72
2023-05-19T10:35:00.413Z,35.75
2023-05-19T10:37:35.880Z,34.84
2023-05-19T10:40:10.011Z,34.17
2023-05-19T10:42:44.885Z,35.56
2023-05-19T10:45:18.667Z,35.06
2023-05-19T10:47:47.261Z,35.52
2023-05-19T10:50:15.689Z,34.90
2023-05-19T10:52:44.724Z,35.76
2023-05-19T10:55:17.767Z,36.45
2023-05-19T10:57:56.730Z,34.96
2023-05-19T11:00:31.158Z,34.92
2023-05-19T11:03:14.220Z,34.29
2023-05-19T11:05:45.225Z,33.66
2023-05-19T11:08:13.761Z,34.19
2023-05-19T11:10:45.185Z,33.66
2023-05-19T11:13:22.575Z,34.33
2023-05-19T11:15:52.926Z,34.26
2023-05-19T11:18:21.384Z,34.19
2023-05-19T11:20:58.644Z,34.90
2023-05-19T11:23:27.030Z,34.31
2023-05-19T11:25:55.322Z,34.25
2023-05-19T11:28:26.262Z,33.49
2023-05-19T11:30:57.717Z,33.71
2023-05-19T11:33:27.802Z,36.10
2023-05-19T11:35:58.912Z,36.25
2023-05-19T11:38:28.242Z,37.12
2023-05-19T11:40:58.034Z,36.22
2023-05-19T11:43:26.469Z,35.40
2023-05-19T11:45:56.604Z,35.46
2023-05-19T11:48:25.782Z,35.86
2023-05-19T11:50:54.228Z,35.69
2023-05-19T11:53:22.562Z,35.34
2023-05-19T11:55:51.055Z,36.49
2023-05-19T11:58:26.008Z,36.80
2023-05-19T12:00:54.191Z,36.87
2023-05-19T12:03:28.048Z,36.30
2023-05-19T12:05:56.622Z,37.18
2023-05-19T12:08:25.783Z,37.40
2023-05-19T12:10:54.157Z,38.28
2023-05-19T12:13:23.397Z,36.82
2023-05-19T12:15:52.913Z,36.25
2023-05-19T12:18:21.418Z,35.61
2023-05-19T12:20:51.057Z,35.91
2023-05-19T12:23:19.312Z,34.55
2023-05-19T12:25:47.425Z,34.56
2023-05-19T12:28:17.256Z,34.77
2023-05-19T12:30:48.829Z,35.02
2023-05-19T12:33:17.089Z,34.63
2023-05-19T12:35:46.130Z,34.95
2023-05-19T12:38:15.841Z,35.53
2023-05-19T12:40:44.284Z,34.46
2023-05-19T12:43:21.000Z,35.88
2023-05-19T12:45:49.172Z,36.57
2023-05-19T12:48:17.475Z,36.54
2023-05-19T12:50:45.941Z,36.15
2023-05-19T12:53:15.925Z,36.48
2023-05-19T12:55:46.072Z,37.01
2023-05-19T12:58:16.579Z,37.13
2023-05-19T13:00:47.315Z,36.72
2023-05-19T13:03:17.300Z,37.43
2023-05-19T13:05:46.861Z,36.90
2023-05-19T13:08:17.528Z,37.24
2023-05-19T13:10:46.966Z,37.61
2023-05-19T13:13:15.117Z,37.19
2023-05-19T13:15:45.128Z,37.15
2023-05-19T13:18:14.192Z,37.47
2023-05-19T13:20:43.231Z,37.81
2023-05-19T13:23:11.764Z,37.99
2023-05-19T13:25:41.542Z,37.31
2023-05-19T13:28:10.324Z,37.48
2023-05-19T13:30:40.541Z,37.56
2023-05-19T13:33:08.881Z,38.07
2023-05-19T13:35:38.210Z,38.38
2023-05-19T13:38:06.747Z,37.83
2023-05-19T13:40:35.656Z,37.94
2023-05-19T13:43:06.111Z,39.51
2023-05-19T13:45:34.467Z,38.96
2023-05-19T13:48:02.751Z,38.67
2023-05-19T13:50:31.312Z,38.21
2023-05-19T13:52:59.453Z,37.76
2023-05-19T13:55:28.241Z,37.97
2023-05-19T13:57:56.399Z,37.94
2023-05-19T14:00:26.134Z,38.23
2023-05-19T14:02:54.319Z,38.35
2023-05-19T14:05:22.471Z,38.35
2023-05-19T14:07:50.744Z,39.03
2023-05-19T14:10:18.951Z,38.16
2023-05-19T14:13:14.103Z,38.21
2023-05-19T14:15:38.058Z,38.49
2023-05-19T14:18:07.075Z,38.82
2023-05-19T14:20:35.767Z,40.15
2023-05-19T14:23:04.284Z,40.27
2023-05-19T14:25:32.418Z,40.31
2023-05-19T14:28:00.597Z,41.27
2023-05-19T14:30:28.986Z,41.85
2023-05-19T14:32:58.702Z,41.16
2023-05-19T14:35:27.381Z,41.69
2023-05-19T14:37:55.539Z,41.93
2023-05-19T14:40:23.718Z,42.14
2023-05-19T14:42:51.792Z,42.06
2023-05-19T14:45:19.933Z,42.77
2023-05-19T14:47:48.293Z,43.36
2023-05-19T14:50:17.928Z,42.92
2023-05-19T14:52:46.085Z,42.83
2023-05-19T14:55:14.220Z,43.28
2023-05-19T14:57:42.358Z,42.67
2023-05-19T15:00:11.223Z,42.63
2023-05-19T15:02:39.419Z,42.51
2023-05-19T15:05:08.121Z,41.79
2023-05-19T15:07:37.594Z,42.62
2023-05-19T15:10:06.502Z,42.19
2023-05-19T15:12:34.630Z,43.02
2023-05-19T15:15:02.795Z,42.63
2023-05-19T15:17:31.008Z,42.42
2023-05-19T15:19:59.112Z,42.54
2023-05-19T15:22:27.359Z,42.64
2023-05-19T15:24:56.850Z,42.32
2023-05-19T15:27:24.949Z,42.45
2023-05-19T15:29:53.029Z,42.87
2023-05-19T15:32:21.303Z,42.57
2023-05-19T15:34:49.490Z,41.93
2023-05-19T15:37:17.634Z,41.65
2023-05-19T15:39:45.840Z,41.55
2023-05-19T15:42:15.300Z,41.69
2023-05-19T15:44:45.904Z,42.06
2023-05-19T15:47:14.036Z,41.88
2023-05-19T15:49:42.201Z,42.36
2023-05-19T15:52:10.366Z,42.55
2023-05-19T15:54:38.502Z,42.82
2023-05-19T15:57:06.998Z,43.25
2023-05-19T15:59:36.460Z,43.16
2023-05-19T16:02:04.696Z,43.70
2023-05-19T16:04:33.315Z,44.14
2023-05-19T16:07:01.390Z,44.29
2023-05-19T16:09:29.632Z,43.90
2023-05-19T16:11:57.747Z,44.87
2023-05-19T16:14:29.327Z,45.11
2023-05-19T16:16:59.902Z,44.71
2023-05-19T16:19:28.136Z,45.30
2023-05-19T16:21:56.357Z,45.19
2023-05-19T16:24:24.463Z,45.24
2023-05-19T16:26:53.848Z,45.71
2023-05-19T16:29:22.115Z,45.72
2023-05-19T16:31:50.403Z,46.11
2023-05-19T16:34:19.931Z,46.10
2023-05-19T16:36:48.057Z,46.03
2023-05-19T16:39:16.417Z,46.42
2023-05-19T16:41:44.556Z,46.81
2023-05-19T16:44:14.409Z,45.52
2023-05-19T16:46:42.744Z,45.76
2023-05-19T16:49:11.203Z,45.04
2023-05-19T16:51:40.698Z,44.58
2023-05-19T16:54:08.773Z,43.29
2023-05-19T16:56:36.929Z,42.78
2023-05-19T16:59:05.021Z,42.84
2023-05-19T17:01:33.219Z,43.82
2023-05-19T17:04:01.327Z,43.40
2023-05-19T17:06:29.551Z,43.67
2023-05-19T17:08:59.026Z,44.45
2023-05-19T17:11:27.560Z,45.21
2023-05-19T17:13:55.697Z,46.62
2023-05-19T17:16:24.549Z,48.15
2023-05-19T17:18:53.774Z,48.50
2023-05-19T17:21:22.138Z,48.92
2023-05-19T17:23:50.519Z,49.48
2023-05-19T17:26:19.996Z,50.26
2023-05-19T17:28:48.183Z,50.71
2023-05-19T17:31:16.607Z,50.25
2023-05-19T17:33:44.840Z,50.73
2023-05-19T17:36:12.958Z,51.48
2023-05-19T17:38:41.797Z,51.44
2023-05-19T17:41:10.954Z,51.70
2023-05-19T17:43:41.622Z,52.32
2023-05-19T17:46:10.349Z,52.74
2023-05-19T17:48:39.608Z,52.79
2023-05-19T17:51:07.947Z,53.28
2023-05-19T17:53:36.725Z,54.07
2023-05-19T17:56:07.333Z,55.11
2023-05-19T17:58:36.068Z,55.34
2023-05-19T18:01:06.126Z,55.45
2023-05-19T18:03:35.017Z,56.18
2023-05-19T18:06:03.279Z,56.47
2023-05-19T18:08:31.994Z,56.56
2023-05-19T18:11:01.252Z,56.89
2023-05-19T18:13:29.322Z,57.31
2023-05-19T18:15:59.660Z,57.69
2023-05-19T18:18:29.228Z,58.15
2023-05-19T18:20:57.339Z,58.08
2023-05-19T18:23:25.615Z,59.00
2023-05-19T18:25:53.977Z,58.89
2023-05-19T18:28:22.060Z,58.76
2023-05-19T18:30:59.738Z,59.13
2023-05-19T18:33:30.956Z,59.35
2023-05-19T18:35:59.729Z,59.55
2023-05-19T18:38:27.880Z,59.57
2023-05-19T18:40:56.722Z,59.59
2023-05-19T18:43:24.896Z,59.70
2023-05-19T18:45:53.106Z,59.63
2023-05-19T18:48:22.541Z,60.00
2023-05-19T18:50:52.181Z,60.47
2023-05-19T18:53:21.752Z,60.47
2023-05-19T18:55:49.940Z,60.60
2023-05-19T18:58:18.612Z,61.10
2023-05-19T19:00:46.714Z,60.85
2023-05-19T19:03:14.873Z,61.34
2023-05-19T19:05:43.126Z,61.44
2023-05-19T19:08:12.695Z,61.96
2023-05-19T19:10:40.820Z,61.85
2023-05-19T19:13:08.903Z,61.95
2023-05-19T19:15:37.736Z,62.34
2023-05-19T19:18:08.031Z,62.47
2023-05-19T19:20:36.374Z,63.02
2023-05-19T19:23:06.512Z,62.90
2023-05-19T19:25:36.197Z,63.31
2023-05-19T19:28:04.366Z,63.61
2023-05-19T19:30:32.756Z,63.59
2023-05-19T19:33:01.139Z,63.65
2023-05-19T19:35:29.347Z,63.51
2023-05-19T19:37:58.449Z,63.54
2023-05-19T19:40:26.703Z,63.74
2023-05-19T19:42:56.212Z,63.97
2023-05-19T19:45:24.352Z,63.96
2023-05-19T19:47:52.842Z,64.17
2023-05-19T19:50:21.366Z,64.35
2023-05-19T19:52:49.518Z,64.71
2023-05-19T19:55:17.633Z,64.50
2023-05-19T19:57:49.174Z,64.76
2023-05-19T20:00:19.439Z,64.89
2023-05-19T20:03:03.744Z,65.42
2023-05-19T20:05:33.544Z,65.38
2023-05-19T20:08:01.696Z,66.20
2023-05-19T20:10:29.818Z,66.47
2023-05-19T20:12:58.870Z,66.75
2023-05-19T20:15:28.426Z,67.09
2023-05-19T20:17:56.668Z,67.36
2023-05-19T20:20:24.877Z,67.32
2023-05-19T20:22:53.057Z,67.61
2023-05-19T20:25:21.360Z,67.56
2023-05-19T20:27:49.471Z,67.51
2023-05-19T20:30:17.729Z,67.77
2023-05-19T20:32:47.504Z,68.04
2023-05-19T20:35:15.888Z,68.18
2023-05-19T20:37:44.021Z,68.27
2023-05-19T20:40:12.830Z,68.55
2023-05-19T20:42:41.320Z,68.95
2023-05-19T20:45:10.044Z,68.98
2023-05-19T20:47:38.249Z,69.36
2023-05-19T20:50:08.898Z,69.23
2023-05-19T20:52:37.093Z,69.77
2023-05-19T20:55:05.502Z,70.01
2023-05-19T20:57:33.700Z,70.34
2023-05-19T21:00:01.836Z,70.42
2023-05-19T21:02:30.121Z,70.54
2023-05-19T21:04:58.315Z,70.98
2023-05-19T21:07:27.868Z,70.97
2023-05-19T21:09:56.639Z,71.68
2023-05-19T21:12:25.329Z,71.77
2023-05-19T21:14:53.502Z,71.93
2023-05-19T21:17:21.584Z,72.05
2023-05-19T21:19:50.774Z,72.30
2023-05-19T21:22:19.017Z,72.53
2023-05-19T21:24:48.588Z,72.58
2023-05-19T21:27:16.717Z,72.80
2023-05-19T21:29:44.877Z,72.99
2023-05-19T21:32:13.036Z,73.09
2023-05-19T21:34:41.163Z,73.34
2023-05-19T21:37:09.293Z,73.58
2023-05-19T21:39:37.391Z,73.57
2023-05-19T21:42:07.297Z,73.66
2023-05-19T21:44:35.586Z,73.54
2023-05-19T21:47:03.733Z,73.96
2023-05-19T21:49:32.134Z,73.99
2023-05-19T21:52:00.267Z,74.25
2023-05-19T21:54:28.402Z,74.05
2023-05-19T21:56:56.511Z,74.44
2023-05-19T21:59:26.360Z,74.32
2023-05-19T22:01:54.465Z,74.37
2023-05-19T22:04:23.325Z,74.73
2023-05-19T22:06:51.422Z,74.54
2023-05-19T22:09:19.586Z,74.71
2023-05-19T22:11:47.735Z,74.80
2023-05-19T22:14:15.827Z,75.00
2023-05-19T22:16:47.531Z,74.90
2023-05-19T22:19:16.079Z,74.99
2023-05-19T22:21:44.242Z,75.19
2023-05-19T22:24:12.371Z,75.31
2023-05-19T22:26:42.683Z,75.46
2023-05-19T22:29:15.019Z,75.76
2023-05-19T22:31:43.203Z,75.86
2023-05-19T22:34:14.442Z,75.97
2023-05-19T22:36:44.193Z,76.06
2023-05-19T22:39:12.669Z,75.93
2023-05-19T22:41:41.979Z,76.02
2023-05-19T22:44:11.383Z,76.10
2023-05-19T22:46:39.499Z,76.42
2023-05-19T22:49:07.586Z,76.65
2023-05-19T22:51:37.148Z,76.87
2023-05-19T22:54:05.321Z,77.17
2023-05-19T22:56:33.454Z,77.14
2023-05-19T22:59:01.564Z,76.92
2023-05-19T23:01:29.701Z,77.25
2023-05-19T23:03:57.842Z,77.31
2023-05-19T23:06:26.048Z,77.60
2023-05-19T23:09:02.091Z,77.81
2023-05-19T23:11:30.191Z,77.88
2023-05-19T23:13:58.270Z,78.21
2023-05-19T23:16:26.456Z,77.90
2023-05-19T23:18:54.640Z,77.86
2023-05-19T23:21:22.795Z,78.11
2023-05-19T23:23:50.974Z,78.02
2023-05-19T23:26:21.389Z,78.33
2023-05-19T23:28:49.655Z,78.45
2023-05-19T23:31:17.807Z,78.47
2023-05-19T23:33:46.030Z,78.69
2023-05-19T23:36:14.179Z,78.88
2023-05-19T23:38:42.301Z,79.23
2023-05-19T23:41:10.393Z,79.37
2023-05-19T23:43:40.102Z,79.36
2023-05-19T23:46:08.579Z,79.47
2023-05-19T23:48:36.798Z,79.41
2023-05-19T23:51:05.049Z,79.68
2023-05-19T23:53:33.191Z,79.67
2023-05-19T23:56:01.348Z,79.59
2023-05-19T23:58:29.596Z,79.59
